createdAt,value
2023-04-07T00:04:52.019Z,9.73
2023-04-07T00:10:13.925Z,9.68
2023-04-07T00:15:35.913Z,8.68
2023-04-07T00:20:57.886Z,9.63
2023-04-07T00:26:19.884Z,7.93
2023-04-07T00:31:41.903Z,9.00
2023-04-07T00:37:03.874Z,8.68
2023-04-07T00:42:25.871Z,9.25
2023-04-07T00:47:47.946Z,8.90
2023-04-07T00:53:09.878Z,8.40
2023-04-07T00:58:31.880Z,8.70
2023-04-07T01:04:23.018Z,8.35
2023-04-07T01:09:52.864Z,8.77
2023-04-07T01:15:23.869Z,8.82
2023-04-07T01:20:48.860Z,8.95
2023-04-07T01:26:46.868Z,9.15
2023-04-07T01:32:12.881Z,8.45
2023-04-07T01:37:34.865Z,9.10
2023-04-07T01:42:56.866Z,8.73
2023-04-07T01:48:20.846Z,9.18
2023-04-07T01:53:45.868Z,8.30
2023-04-07T01:59:07.862Z,9.38
2023-04-07T02:04:57.861Z,9.43
2023-04-07T02:10:24.889Z,8.80
2023-04-07T02:15:48.833Z,9.15
2023-04-07T02:21:12.839Z,9.30
2023-04-07T02:26:35.483Z,8.98
2023-04-07T02:31:56.889Z,9.40
2023-04-07T02:37:18.841Z,9.13
2023-04-07T02:42:40.858Z,9.45
2023-04-07T02:48:02.839Z,9.38
2023-04-07T02:53:24.853Z,9.25
2023-04-07T02:58:46.832Z,9.27
2023-04-07T03:04:09.917Z,9.00
2023-04-07T03:09:31.819Z,8.18
2023-04-07T03:14:53.845Z,8.32
2023-04-07T03:20:16.836Z,8.40
2023-04-07T03:25:38.838Z,8.55
2023-04-07T03:31:00.860Z,8.02
2023-04-07T03:36:22.921Z,8.82
2023-04-07T03:41:47.829Z,8.80
2023-04-07T03:47:09.829Z,9.20
2023-04-07T03:52:36.798Z,9.93
2023-04-07T03:58:09.821Z,9.10
2023-04-07T04:03:34.902Z,8.90
2023-04-07T04:09:09.811Z,8.50
2023-04-07T04:14:34.822Z,8.80
2023-04-07T04:19:58.824Z,8.90
2023-04-07T04:25:28.793Z,9.10
2023-04-07T04:30:54.833Z,9.40
2023-04-07T04:36:18.830Z,10.30
2023-04-07T04:41:45.803Z,9.98
2023-04-07T04:47:10.859Z,10.18
2023-04-07T04:52:33.849Z,10.48
2023-04-07T04:58:00.788Z,10.23
2023-04-07T05:03:33.900Z,8.95
2023-04-07T05:09:02.796Z,11.02
2023-04-07T05:14:33.827Z,10.00
2023-04-07T05:19:56.799Z,10.55
2023-04-07T05:25:24.812Z,9.70
2023-04-07T05:30:49.776Z,10.07
2023-04-07T05:36:16.832Z,10.45
2023-04-07T05:41:42.776Z,10.02
2023-04-07T05:47:05.809Z,10.15
2023-04-07T05:52:28.794Z,10.80
2023-04-07T05:58:02.782Z,10.63
2023-04-07T06:03:24.919Z,10.35
2023-04-07T06:08:54.775Z,9.63
2023-04-07T06:14:16.781Z,10.95
2023-04-07T06:19:38.761Z,11.27
2023-04-07T06:25:00.799Z,11.20
2023-04-07T06:30:23.894Z,10.45
2023-04-07T06:35:46.756Z,10.23
2023-04-07T06:41:08.748Z,10.70
2023-04-07T06:46:32.806Z,11.27
2023-04-07T06:51:54.748Z,10.02
2023-04-07T06:57:18.756Z,10.65
2023-04-07T07:02:40.934Z,11.07
2023-04-07T07:08:02.766Z,10.82
2023-04-07T07:13:24.741Z,10.73
2023-04-07T07:18:46.759Z,11.30
2023-04-07T07:24:08.748Z,11.43
2023-04-07T07:29:30.748Z,10.63
2023-04-07T07:34:52.736Z,11.07
2023-04-07T07:40:14.734Z,10.75
2023-04-07T07:45:36.749Z,10.25
2023-04-07T07:50:58.737Z,9.98
2023-04-07T07:56:20.741Z,10.07
2023-04-07T08:01:42.767Z,10.18
2023-04-07T08:07:11.720Z,10.52
2023-04-07T08:12:33.717Z,10.27
2023-04-07T08:17:56.319Z,10.38
2023-04-07T08:23:17.731Z,10.98
2023-04-07T08:28:39.734Z,10.35
2023-04-07T08:34:04.725Z,10.13
2023-04-07T08:39:26.723Z,10.85
2023-04-07T08:44:48.709Z,11.13
2023-04-07T08:50:22.746Z,11.30
2023-04-07T08:55:44.719Z,10.95
2023-04-07T09:01:06.749Z,11.23
2023-04-07T09:06:35.720Z,10.40
2023-04-07T09:11:57.699Z,10.93
2023-04-07T09:17:19.702Z,10.80
2023-04-07T09:22:48.704Z,10.73
2023-04-07T09:28:14.714Z,11.85
2023-04-07T09:33:36.716Z,11.38
2023-04-07T09:38:58.725Z,11.25
2023-04-07T09:44:20.728Z,11.93
2023-04-07T09:49:42.697Z,18.20
2023-04-07T09:55:04.736Z,11.52
2023-04-07T10:00:26.722Z,10.60
2023-04-07T10:05:48.724Z,9.98
2023-04-07T10:11:11.714Z,10.32
2023-04-07T10:16:33.703Z,10.63
2023-04-07T10:21:57.722Z,10.68
2023-04-07T10:27:24.688Z,10.25
2023-04-07T10:32:58.786Z,9.88
2023-04-07T10:38:21.723Z,10.70
2023-04-07T10:43:54.693Z,13.75
2023-04-07T10:49:18.613Z,10.63
2023-04-07T10:54:40.683Z,9.85
2023-04-07T11:00:17.753Z,9.48
2023-04-07T11:05:39.700Z,9.02
2023-04-07T11:11:01.720Z,10.60
2023-04-07T11:16:23.745Z,9.30
2023-04-07T11:21:45.669Z,8.55
2023-04-07T11:27:07.721Z,9.10
2023-04-07T11:32:35.759Z,9.73
2023-04-07T11:37:57.684Z,8.63
2023-04-07T11:43:27.719Z,9.05
2023-04-07T11:48:50.682Z,8.85
2023-04-07T11:54:12.664Z,7.63
2023-04-07T11:59:39.686Z,8.95
2023-04-07T12:05:03.859Z,8.70
2023-04-07T12:10:26.678Z,9.52
2023-04-07T12:15:49.693Z,9.05
2023-04-07T12:21:11.664Z,9.25
2023-04-07T12:26:33.675Z,9.25
2023-04-07T12:31:55.705Z,8.48
2023-04-07T12:37:17.663Z,9.82
2023-04-07T12:42:39.679Z,8.50
2023-04-07T12:48:01.679Z,8.98
2023-04-07T12:53:23.682Z,9.40
2023-04-07T12:58:45.646Z,8.48
2023-04-07T13:04:08.762Z,8.60
2023-04-07T13:09:30.662Z,8.00
2023-04-07T13:14:59.724Z,8.02
2023-04-07T13:20:22.694Z,8.88
2023-04-07T13:25:44.669Z,8.27
2023-04-07T13:31:06.732Z,8.30
2023-04-07T13:36:28.674Z,7.18
2023-04-07T13:41:50.652Z,8.32
2023-04-07T13:47:12.658Z,6.10
2023-04-07T13:52:34.673Z,6.38
2023-04-07T13:57:56.658Z,7.28
2023-04-07T14:03:18.697Z,7.40
2023-04-07T14:08:40.666Z,9.45
2023-04-07T14:14:03.661Z,7.90
2023-04-07T14:19:28.666Z,7.85
2023-04-07T14:24:50.626Z,7.50
2023-04-07T14:30:12.643Z,10.20
2023-04-07T14:35:34.655Z,8.43
2023-04-07T14:40:56.679Z,7.50
2023-04-07T14:46:18.681Z,7.13
2023-04-07T14:51:40.653Z,7.80
2023-04-07T14:57:02.622Z,7.50
2023-04-07T15:02:24.834Z,7.03
2023-04-07T15:08:01.677Z,7.82
2023-04-07T15:13:23.631Z,7.90
2023-04-07T15:18:45.653Z,7.28
2023-04-07T15:24:07.636Z,6.45
2023-04-07T15:29:29.623Z,7.13
2023-04-07T15:34:51.629Z,6.40
2023-04-07T15:40:13.642Z,6.10
2023-04-07T15:45:35.639Z,5.95
2023-04-07T15:50:58.631Z,6.75
2023-04-07T15:56:20.640Z,6.72
2023-04-07T16:01:42.716Z,6.57
2023-04-07T16:07:04.620Z,7.00
2023-04-07T16:12:26.636Z,6.43
2023-04-07T16:17:53.672Z,7.18
2023-04-07T16:23:15.631Z,6.90
2023-04-07T16:28:37.640Z,7.05
2023-04-07T16:33:59.613Z,6.47
2023-04-07T16:39:22.981Z,6.65
2023-04-07T16:44:46.623Z,6.10
2023-04-07T16:50:10.633Z,6.03
2023-04-07T16:55:32.639Z,5.95
2023-04-07T17:00:54.620Z,5.80
2023-04-07T17:06:17.614Z,5.50
2023-04-07T17:11:39.623Z,4.85
2023-04-07T17:17:01.660Z,5.78
2023-04-07T17:22:23.620Z,5.03
2023-04-07T17:27:45.612Z,4.68
2023-04-07T17:33:07.653Z,4.80
2023-04-07T17:38:29.605Z,4.93
2023-04-07T17:43:51.612Z,5.22
2023-04-07T17:49:13.665Z,4.70
2023-04-07T17:54:35.629Z,4.75
2023-04-07T17:59:57.657Z,4.70
2023-04-07T18:05:27.595Z,4.15
2023-04-07T18:10:49.614Z,3.92
2023-04-07T18:16:15.651Z,4.13
2023-04-07T18:21:37.616Z,4.50
2023-04-07T18:26:59.621Z,4.07
2023-04-07T18:32:21.595Z,3.70
2023-04-07T18:37:44.340Z,3.72
2023-04-07T18:43:05.597Z,4.35
2023-04-07T18:48:28.621Z,4.63
2023-04-07T18:53:50.738Z,5.20
2023-04-07T18:59:14.602Z,4.95
2023-04-07T19:04:36.580Z,4.20
2023-04-07T19:10:00.581Z,4.40
2023-04-07T19:15:23.590Z,3.88
2023-04-07T19:20:45.587Z,4.45
2023-04-07T19:26:07.635Z,4.65
2023-04-07T19:31:29.626Z,4.82
2023-04-07T19:36:51.590Z,4.97
2023-04-07T19:42:13.578Z,5.78
2023-04-07T19:47:35.615Z,5.40
2023-04-07T19:52:59.599Z,5.88
2023-04-07T19:58:23.607Z,6.53
2023-04-07T20:03:52.740Z,7.60
2023-04-07T20:09:21.561Z,8.02
2023-04-07T20:14:44.588Z,7.75
2023-04-07T20:20:09.604Z,8.70
2023-04-07T20:25:31.588Z,8.77
2023-04-07T20:30:53.640Z,8.63
2023-04-07T20:36:15.588Z,8.40
2023-04-07T20:41:37.572Z,8.90
2023-04-07T20:46:59.568Z,8.70
2023-04-07T20:52:28.574Z,9.02
2023-04-07T20:57:50.609Z,8.25
2023-04-07T21:03:12.837Z,9.05
2023-04-07T21:08:41.589Z,8.55
2023-04-07T21:14:03.555Z,7.82
2023-04-07T21:19:25.582Z,8.38
2023-04-07T21:24:47.558Z,8.25
2023-04-07T21:30:09.592Z,8.40
2023-04-07T21:35:34.613Z,7.80
2023-04-07T21:40:56.607Z,8.10
2023-04-07T21:46:20.590Z,8.23
2023-04-07T21:51:43.558Z,8.43
2023-04-07T21:57:07.631Z,8.32
2023-04-07T22:02:29.745Z,8.25
2023-04-07T22:07:58.592Z,8.88
2023-04-07T22:13:20.530Z,7.57
2023-04-07T22:18:42.535Z,7.50
2023-04-07T22:24:04.538Z,7.75
2023-04-07T22:29:26.558Z,7.70
2023-04-07T22:34:48.546Z,7.72
2023-04-07T22:40:10.549Z,8.27
2023-04-07T22:45:32.525Z,8.93
2023-04-07T22:50:54.548Z,8.13
2023-04-07T22:56:16.550Z,7.97
2023-04-07T23:01:38.663Z,7.50
2023-04-07T23:07:00.531Z,7.53
2023-04-07T23:12:22.553Z,7.82
2023-04-07T23:17:44.572Z,8.60
2023-04-07T23:23:06.554Z,7.90
2023-04-07T23:28:28.515Z,7.25
2023-04-07T23:33:50.534Z,7.60
2023-04-07T23:39:12.533Z,8.00
2023-04-07T23:44:34.524Z,7.28
2023-04-07T23:49:56.512Z,7.00
2023-04-07T23:55:18.529Z,7.35
